sensor_id;sensor_type;location;lat;lon;timestamp;temperature;humidity
7016;DHT22;3548;48.402;9.990;2023-02-28T00:02:17;-2.00;99.90
7016;DHT22;3548;48.402;9.990;2023-02-28T00:04:43;-2.00;99.90
7016;DHT22;3548;48.402;9.990;2023-02-28T00:07:09;-1.90;99.90
7016;DHT22;3548;48.402;9.990;2023-02-28T00:09:35;-1.90;99.90
7016;DHT22;3548;48.402;9.990;2023-02-28T00:12:00;-1.90;99.90
7016;DHT22;3548;48.402;9.990;2023-02-28T00:14:36;-1.80;99.90
7016;DHT22;3548;48.402;9.990;2023-02-28T00:17:02;-1.80;99.90
7016;DHT22;3548;48.402;9.990;2023-02-28T00:19:27;-1.80;99.90
7016;DHT22;3548;48.402;9.990;2023-02-28T00:21:53;-1.80;99.90
7016;DHT22;3548;48.402;9.990;2023-02-28T00:24:18;-1.80;99.90
7016;DHT22;3548;48.402;9.990;2023-02-28T00:26:44;-1.80;99.90
7016;DHT22;3548;48.402;9.990;2023-02-28T00:29:10;-1.80;99.90
7016;DHT22;3548;48.402;9.990;2023-02-28T00:31:35;-1.80;99.90
7016;DHT22;3548;48.402;9.990;2023-02-28T00:34:01;-1.80;99.90
7016;DHT22;3548;48.402;9.990;2023-02-28T00:36:26;-1.80;99.90
7016;DHT22;3548;48.402;9.990;2023-02-28T00:38:52;-1.80;99.90
7016;DHT22;3548;48.402;9.990;2023-02-28T00:41:18;-1.70;99.90
7016;DHT22;3548;48.402;9.990;2023-02-28T00:43:43;-1.70;99.90
7016;DHT22;3548;48.402;9.990;2023-02-28T00:46:09;-1.70;99.90
7016;DHT22;3548;48.402;9.990;2023-02-28T00:48:35;-1.80;99.90
7016;DHT22;3548;48.402;9.990;2023-02-28T00:51:01;-1.70;99.90
7016;DHT22;3548;48.402;9.990;2023-02-28T00:53:28;-1.70;99.90
7016;DHT22;3548;48.402;9.990;2023-02-28T00:55:54;-1.70;99.90
7016;DHT22;3548;48.402;9.990;2023-02-28T00:58:19;-1.70;99.90
7016;DHT22;3548;48.402;9.990;2023-02-28T01:00:45;-1.70;99.90
7016;DHT22;3548;48.402;9.990;2023-02-28T01:03:15;-1.80;99.90
7016;DHT22;3548;48.402;9.990;2023-02-28T01:05:41;-1.80;99.90
7016;DHT22;3548;48.402;9.990;2023-02-28T01:08:06;-1.80;99.90
7016;DHT22;3548;48.402;9.990;2023-02-28T01:10:32;-1.80;99.90
7016;DHT22;3548;48.402;9.990;2023-02-28T01:12:58;-1.80;99.90
7016;DHT22;3548;48.402;9.990;2023-02-28T01:15:24;-1.80;99.90
7016;DHT22;3548;48.402;9.990;2023-02-28T01:17:49;-1.80;99.90
7016;DHT22;3548;48.402;9.990;2023-02-28T01:20:15;-1.90;99.90
7016;DHT22;3548;48.402;9.990;2023-02-28T01:22:40;-1.90;99.90
7016;DHT22;3548;48.402;9.990;2023-02-28T01:25:06;-1.90;99.90
7016;DHT22;3548;48.402;9.990;2023-02-28T01:27:33;-1.90;99.90
7016;DHT22;3548;48.402;9.990;2023-02-28T01:29:59;-1.80;99.90
7016;DHT22;3548;48.402;9.990;2023-02-28T01:32:24;-1.80;99.90
7016;DHT22;3548;48.402;9.990;2023-02-28T01:34:50;-1.80;99.90
7016;DHT22;3548;48.402;9.990;2023-02-28T01:37:15;-1.80;99.90
7016;DHT22;3548;48.402;9.990;2023-02-28T01:39:42;-1.80;99.90
7016;DHT22;3548;48.402;9.990;2023-02-28T01:42:09;-1.90;99.90
7016;DHT22;3548;48.402;9.990;2023-02-28T01:47:23;-1.80;99.90
7016;DHT22;3548;48.402;9.990;2023-02-28T01:49:50;-1.80;99.90
7016;DHT22;3548;48.402;9.990;2023-02-28T01:52:17;-1.80;99.90
7016;DHT22;3548;48.402;9.990;2023-02-28T01:54:48;-1.80;99.90
7016;DHT22;3548;48.402;9.990;2023-02-28T01:57:18;-1.80;99.90
7016;DHT22;3548;48.402;9.990;2023-02-28T01:59:50;-1.80;99.90
7016;DHT22;3548;48.402;9.990;2023-02-28T02:02:19;-1.90;99.90
7016;DHT22;3548;48.402;9.990;2023-02-28T02:04:57;-1.90;99.90
7016;DHT22;3548;48.402;9.990;2023-02-28T02:07:25;-1.90;99.90
7016;DHT22;3548;48.402;9.990;2023-02-28T02:10:04;-1.80;99.90
7016;DHT22;3548;48.402;9.990;2023-02-28T02:12:46;-1.80;99.90
7016;DHT22;3548;48.402;9.990;2023-02-28T02:22:02;-1.90;99.90
7016;DHT22;3548;48.402;9.990;2023-02-28T02:36:04;-1.90;99.90
7016;DHT22;3548;48.402;9.990;2023-02-28T02:38:47;-1.90;99.90
7016;DHT22;3548;48.402;9.990;2023-02-28T02:41:23;-1.90;99.90
7016;DHT22;3548;48.402;9.990;2023-02-28T02:44:02;-1.90;99.90
7016;DHT22;3548;48.402;9.990;2023-02-28T02:46:36;-1.90;99.90
7016;DHT22;3548;48.402;9.990;2023-02-28T02:49:06;-1.90;99.90
7016;DHT22;3548;48.402;9.990;2023-02-28T02:51:35;-1.90;99.90
7016;DHT22;3548;48.402;9.990;2023-02-28T02:54:37;-1.90;99.90
7016;DHT22;3548;48.402;9.990;2023-02-28T02:57:08;-1.90;99.90
7016;DHT22;3548;48.402;9.990;2023-02-28T02:59:37;-1.90;99.90
7016;DHT22;3548;48.402;9.990;2023-02-28T03:02:07;-1.90;99.90
7016;DHT22;3548;48.402;9.990;2023-02-28T03:04:40;-1.90;99.90
7016;DHT22;3548;48.402;9.990;2023-02-28T03:07:07;-1.90;99.90
7016;DHT22;3548;48.402;9.990;2023-02-28T03:09:33;-1.90;99.90
7016;DHT22;3548;48.402;9.990;2023-02-28T03:12:01;-1.90;99.90
7016;DHT22;3548;48.402;9.990;2023-02-28T03:17:41;-1.80;99.90
7016;DHT22;3548;48.402;9.990;2023-02-28T03:23:18;-1.80;99.90
7016;DHT22;3548;48.402;9.990;2023-02-28T03:31:49;-1.80;99.90
7016;DHT22;3548;48.402;9.990;2023-02-28T03:34:15;-1.80;99.90
7016;DHT22;3548;48.402;9.990;2023-02-28T03:36:47;-1.80;99.90
7016;DHT22;3548;48.402;9.990;2023-02-28T03:39:17;-1.80;99.90
7016;DHT22;3548;48.402;9.990;2023-02-28T03:41:46;-1.90;99.90
7016;DHT22;3548;48.402;9.990;2023-02-28T03:44:20;-1.90;99.90
7016;DHT22;3548;48.402;9.990;2023-02-28T03:49:53;-1.90;99.90
7016;DHT22;3548;48.402;9.990;2023-02-28T03:52:22;-1.80;99.90
7016;DHT22;3548;48.402;9.990;2023-02-28T03:54:52;-1.80;99.90
7016;DHT22;3548;48.402;9.990;2023-02-28T04:00:16;-1.80;99.90
7016;DHT22;3548;48.402;9.990;2023-02-28T04:02:43;-1.80;99.90
7016;DHT22;3548;48.402;9.990;2023-02-28T04:05:08;-1.80;99.90
7016;DHT22;3548;48.402;9.990;2023-02-28T04:07:34;-1.80;99.90
7016;DHT22;3548;48.402;9.990;2023-02-28T04:10:00;-1.80;99.90
7016;DHT22;3548;48.402;9.990;2023-02-28T04:12:26;-1.70;99.90
7016;DHT22;3548;48.402;9.990;2023-02-28T04:14:52;-1.70;99.90
7016;DHT22;3548;48.402;9.990;2023-02-28T04:17:17;-1.70;99.90
7016;DHT22;3548;48.402;9.990;2023-02-28T04:19:43;-1.70;99.90
7016;DHT22;3548;48.402;9.990;2023-02-28T04:22:09;-1.70;99.90
7016;DHT22;3548;48.402;9.990;2023-02-28T04:24:35;-1.70;99.90
7016;DHT22;3548;48.402;9.990;2023-02-28T04:27:01;-1.70;99.90
7016;DHT22;3548;48.402;9.990;2023-02-28T04:29:30;-1.70;99.90
7016;DHT22;3548;48.402;9.990;2023-02-28T04:31:58;-1.70;99.90
7016;DHT22;3548;48.402;9.990;2023-02-28T04:34:24;-1.70;99.90
7016;DHT22;3548;48.402;9.990;2023-02-28T04:36:50;-1.70;99.90
7016;DHT22;3548;48.402;9.990;2023-02-28T04:39:17;-1.70;99.90
7016;DHT22;3548;48.402;9.990;2023-02-28T04:41:44;-1.70;99.90
7016;DHT22;3548;48.402;9.990;2023-02-28T04:44:10;-1.70;99.90
7016;DHT22;3548;48.402;9.990;2023-02-28T04:46:35;-1.70;99.90
7016;DHT22;3548;48.402;9.990;2023-02-28T04:49:02;-1.70;99.90
7016;DHT22;3548;48.402;9.990;2023-02-28T04:51:28;-1.70;99.90
7016;DHT22;3548;48.402;9.990;2023-02-28T04:53:54;-1.70;99.90
7016;DHT22;3548;48.402;9.990;2023-02-28T04:56:19;-1.70;99.90
7016;DHT22;3548;48.402;9.990;2023-02-28T04:58:46;-1.70;99.90
7016;DHT22;3548;48.402;9.990;2023-02-28T05:01:28;-1.70;99.90
7016;DHT22;3548;48.402;9.990;2023-02-28T05:03:56;-1.80;99.90
7016;DHT22;3548;48.402;9.990;2023-02-28T05:06:24;-1.80;99.90
7016;DHT22;3548;48.402;9.990;2023-02-28T05:08:50;-1.80;99.90
7016;DHT22;3548;48.402;9.990;2023-02-28T05:11:27;-1.80;99.90
7016;DHT22;3548;48.402;9.990;2023-02-28T05:14:05;-1.80;99.90
7016;DHT22;3548;48.402;9.990;2023-02-28T05:16:31;-1.80;99.90
7016;DHT22;3548;48.402;9.990;2023-02-28T05:18:57;-1.70;99.90
7016;DHT22;3548;48.402;9.990;2023-02-28T05:23:53;-1.70;99.90
7016;DHT22;3548;48.402;9.990;2023-02-28T05:26:19;-1.70;99.90
7016;DHT22;3548;48.402;9.990;2023-02-28T05:28:45;-1.70;99.90
7016;DHT22;3548;48.402;9.990;2023-02-28T05:31:11;-1.70;99.90
7016;DHT22;3548;48.402;9.990;2023-02-28T05:36:04;-1.80;99.90
7016;DHT22;3548;48.402;9.990;2023-02-28T05:38:29;-1.80;99.90
7016;DHT22;3548;48.402;9.990;2023-02-28T05:40:55;-1.80;99.90
7016;DHT22;3548;48.402;9.990;2023-02-28T05:43:21;-1.70;99.90
7016;DHT22;3548;48.402;9.990;2023-02-28T05:45:47;-1.80;99.90
7016;DHT22;3548;48.402;9.990;2023-02-28T05:48:13;-1.80;99.90
7016;DHT22;3548;48.402;9.990;2023-02-28T05:50:38;-1.70;99.90
7016;DHT22;3548;48.402;9.990;2023-02-28T05:53:04;-1.60;99.90
7016;DHT22;3548;48.402;9.990;2023-02-28T05:55:29;-1.70;99.90
7016;DHT22;3548;48.402;9.990;2023-02-28T05:57:55;-1.60;99.90
7016;DHT22;3548;48.402;9.990;2023-02-28T06:00:21;-1.60;99.90
7016;DHT22;3548;48.402;9.990;2023-02-28T06:02:47;-1.60;99.90
7016;DHT22;3548;48.402;9.990;2023-02-28T06:05:17;-1.70;99.90
7016;DHT22;3548;48.402;9.990;2023-02-28T06:07:43;-1.60;99.90
7016;DHT22;3548;48.402;9.990;2023-02-28T06:10:13;-1.60;99.90
7016;DHT22;3548;48.402;9.990;2023-02-28T06:12:39;-1.70;99.90
7016;DHT22;3548;48.402;9.990;2023-02-28T06:15:07;-1.60;99.90
7016;DHT22;3548;48.402;9.990;2023-02-28T06:17:35;-1.60;99.90
7016;DHT22;3548;48.402;9.990;2023-02-28T06:20:00;-1.60;99.90
7016;DHT22;3548;48.402;9.990;2023-02-28T06:22:26;-1.70;99.90
7016;DHT22;3548;48.402;9.990;2023-02-28T06:24:52;-1.70;99.90
7016;DHT22;3548;48.402;9.990;2023-02-28T06:27:18;-1.70;99.90
7016;DHT22;3548;48.402;9.990;2023-02-28T06:29:44;-1.60;99.90
7016;DHT22;3548;48.402;9.990;2023-02-28T06:32:10;-1.70;99.90
7016;DHT22;3548;48.402;9.990;2023-02-28T06:34:35;-1.60;99.90
7016;DHT22;3548;48.402;9.990;2023-02-28T06:37:01;-1.60;99.90
7016;DHT22;3548;48.402;9.990;2023-02-28T06:39:31;-1.50;99.90
7016;DHT22;3548;48.402;9.990;2023-02-28T06:41:57;-1.50;99.90
7016;DHT22;3548;48.402;9.990;2023-02-28T06:44:23;-1.50;99.90
7016;DHT22;3548;48.402;9.990;2023-02-28T06:46:49;-1.50;99.90
7016;DHT22;3548;48.402;9.990;2023-02-28T06:49:16;-1.50;99.90
7016;DHT22;3548;48.402;9.990;2023-02-28T06:51:43;-1.50;99.90
7016;DHT22;3548;48.402;9.990;2023-02-28T06:54:11;-1.40;99.90
7016;DHT22;3548;48.402;9.990;2023-02-28T06:56:37;-1.50;99.90
7016;DHT22;3548;48.402;9.990;2023-02-28T06:59:03;-1.40;99.90
7016;DHT22;3548;48.402;9.990;2023-02-28T07:01:29;-1.40;99.90
7016;DHT22;3548;48.402;9.990;2023-02-28T07:03:57;-1.50;99.90
7016;DHT22;3548;48.402;9.990;2023-02-28T07:06:23;-1.50;99.90
7016;DHT22;3548;48.402;9.990;2023-02-28T07:08:52;-1.50;99.90
7016;DHT22;3548;48.402;9.990;2023-02-28T07:11:20;-1.50;99.90
7016;DHT22;3548;48.402;9.990;2023-02-28T07:13:48;-1.50;99.90
7016;DHT22;3548;48.402;9.990;2023-02-28T07:16:14;-1.50;99.90
7016;DHT22;3548;48.402;9.990;2023-02-28T07:18:39;-1.50;99.90
7016;DHT22;3548;48.402;9.990;2023-02-28T07:21:07;-1.60;99.90
7016;DHT22;3548;48.402;9.990;2023-02-28T07:23:34;-1.50;99.90
7016;DHT22;3548;48.402;9.990;2023-02-28T07:26:00;-1.50;99.90
7016;DHT22;3548;48.402;9.990;2023-02-28T07:28:27;-1.50;99.90
7016;DHT22;3548;48.402;9.990;2023-02-28T07:30:53;-1.40;99.90
7016;DHT22;3548;48.402;9.990;2023-02-28T07:33:18;-1.40;99.90
7016;DHT22;3548;48.402;9.990;2023-02-28T07:35:45;-1.30;99.90
7016;DHT22;3548;48.402;9.990;2023-02-28T07:38:11;-1.40;99.90
7016;DHT22;3548;48.402;9.990;2023-02-28T07:40:39;-1.50;99.90
7016;DHT22;3548;48.402;9.990;2023-02-28T07:43:05;-1.50;99.90
7016;DHT22;3548;48.402;9.990;2023-02-28T07:45:31;-1.50;99.90
7016;DHT22;3548;48.402;9.990;2023-02-28T07:48:00;-1.40;99.90
7016;DHT22;3548;48.402;9.990;2023-02-28T07:50:26;-1.50;99.90
7016;DHT22;3548;48.402;9.990;2023-02-28T07:52:54;-1.40;99.90
7016;DHT22;3548;48.402;9.990;2023-02-28T07:55:20;-1.40;99.90
7016;DHT22;3548;48.402;9.990;2023-02-28T07:57:45;-1.30;99.90
7016;DHT22;3548;48.402;9.990;2023-02-28T08:00:12;-1.30;99.90
7016;DHT22;3548;48.402;9.990;2023-02-28T08:02:38;-1.30;99.90
7016;DHT22;3548;48.402;9.990;2023-02-28T08:05:05;-1.40;99.90
7016;DHT22;3548;48.402;9.990;2023-02-28T08:07:31;-1.40;99.90
7016;DHT22;3548;48.402;9.990;2023-02-28T08:09:57;-1.40;99.90
7016;DHT22;3548;48.402;9.990;2023-02-28T08:12:23;-1.50;99.90
7016;DHT22;3548;48.402;9.990;2023-02-28T08:14:48;-1.50;99.90
7016;DHT22;3548;48.402;9.990;2023-02-28T08:17:14;-1.50;99.90
7016;DHT22;3548;48.402;9.990;2023-02-28T08:19:40;-1.50;99.90
7016;DHT22;3548;48.402;9.990;2023-02-28T08:22:05;-1.40;99.90
7016;DHT22;3548;48.402;9.990;2023-02-28T08:24:31;-1.30;99.90
7016;DHT22;3548;48.402;9.990;2023-02-28T08:26:57;-1.30;99.90
7016;DHT22;3548;48.402;9.990;2023-02-28T08:29:23;-1.30;99.90
7016;DHT22;3548;48.402;9.990;2023-02-28T08:31:48;-1.30;99.90
7016;DHT22;3548;48.402;9.990;2023-02-28T08:34:15;-1.20;99.90
7016;DHT22;3548;48.402;9.990;2023-02-28T08:36:41;-1.20;99.90
7016;DHT22;3548;48.402;9.990;2023-02-28T08:39:09;-1.40;99.90
7016;DHT22;3548;48.402;9.990;2023-02-28T08:41:34;-1.30;99.90
7016;DHT22;3548;48.402;9.990;2023-02-28T08:44:00;-1.10;99.90
7016;DHT22;3548;48.402;9.990;2023-02-28T08:46:27;-0.90;99.90
7016;DHT22;3548;48.402;9.990;2023-02-28T08:48:53;-0.90;99.90
7016;DHT22;3548;48.402;9.990;2023-02-28T08:51:20;-0.80;99.90
7016;DHT22;3548;48.402;9.990;2023-02-28T08:53:52;-0.60;99.90
7016;DHT22;3548;48.402;9.990;2023-02-28T08:56:18;-0.60;99.90
7016;DHT22;3548;48.402;9.990;2023-02-28T08:58:45;-0.50;99.90
7016;DHT22;3548;48.402;9.990;2023-02-28T09:01:19;-0.40;99.90
7016;DHT22;3548;48.402;9.990;2023-02-28T09:03:47;-0.40;99.90
7016;DHT22;3548;48.402;9.990;2023-02-28T09:06:14;-0.40;99.90
7016;DHT22;3548;48.402;9.990;2023-02-28T09:08:40;-0.40;99.90
7016;DHT22;3548;48.402;9.990;2023-02-28T09:11:05;-0.30;99.90
7016;DHT22;3548;48.402;9.990;2023-02-28T09:13:32;-0.30;99.90
7016;DHT22;3548;48.402;9.990;2023-02-28T09:16:02;-0.50;99.90
7016;DHT22;3548;48.402;9.990;2023-02-28T09:18:28;-0.50;99.90
7016;DHT22;3548;48.402;9.990;2023-02-28T09:20:55;-0.30;99.90
7016;DHT22;3548;48.402;9.990;2023-02-28T09:23:21;-0.30;99.90
7016;DHT22;3548;48.402;9.990;2023-02-28T09:25:50;-0.20;99.90
7016;DHT22;3548;48.402;9.990;2023-02-28T09:28:17;-0.20;99.90
7016;DHT22;3548;48.402;9.990;2023-02-28T09:30:52;-0.30;99.90
7016;DHT22;3548;48.402;9.990;2023-02-28T09:33:19;-0.50;99.90
7016;DHT22;3548;48.402;9.990;2023-02-28T09:35:48;-0.60;99.90
7016;DHT22;3548;48.402;9.990;2023-02-28T09:38:14;-0.50;99.90
7016;DHT22;3548;48.402;9.990;2023-02-28T09:40:49;-0.50;99.90
7016;DHT22;3548;48.402;9.990;2023-02-28T09:43:15;-0.20;99.90
7016;DHT22;3548;48.402;9.990;2023-02-28T09:45:47;-0.10;99.90
7016;DHT22;3548;48.402;9.990;2023-02-28T09:48:28;-0.10;99.90
7016;DHT22;3548;48.402;9.990;2023-02-28T09:51:27;-0.20;99.90
7016;DHT22;3548;48.402;9.990;2023-02-28T09:53:49;-0.10;99.90
7016;DHT22;3548;48.402;9.990;2023-02-28T09:59:32;-0.10;99.90
7016;DHT22;3548;48.402;9.990;2023-02-28T10:04:58;-0.10;99.90
7016;DHT22;3548;48.402;9.990;2023-02-28T10:07:37;0.00;99.90
7016;DHT22;3548;48.402;9.990;2023-02-28T10:10:40;0.00;99.90
7016;DHT22;3548;48.402;9.990;2023-02-28T10:13:27;0.00;99.90
7016;DHT22;3548;48.402;9.990;2023-02-28T10:16:13;-0.10;99.90
7016;DHT22;3548;48.402;9.990;2023-02-28T10:18:59;0.10;99.90
7016;DHT22;3548;48.402;9.990;2023-02-28T10:21:28;0.40;99.90
7016;DHT22;3548;48.402;9.990;2023-02-28T10:26:45;0.80;99.90
7016;DHT22;3548;48.402;9.990;2023-02-28T10:29:12;0.90;99.90
7016;DHT22;3548;48.402;9.990;2023-02-28T10:31:39;0.90;99.90
7016;DHT22;3548;48.402;9.990;2023-02-28T10:34:05;0.70;99.90
7016;DHT22;3548;48.402;9.990;2023-02-28T10:36:31;0.40;99.90
7016;DHT22;3548;48.402;9.990;2023-02-28T10:38:58;0.40;99.90
7016;DHT22;3548;48.402;9.990;2023-02-28T10:41:30;0.20;99.90
7016;DHT22;3548;48.402;9.990;2023-02-28T10:44:21;0.40;99.90
7016;DHT22;3548;48.402;9.990;2023-02-28T10:46:49;0.40;99.90
7016;DHT22;3548;48.402;9.990;2023-02-28T10:49:27;0.50;99.90
7016;DHT22;3548;48.402;9.990;2023-02-28T10:51:56;0.80;99.90
7016;DHT22;3548;48.402;9.990;2023-02-28T10:54:34;1.00;99.90
7016;DHT22;3548;48.402;9.990;2023-02-28T10:57:11;1.10;99.90
7016;DHT22;3548;48.402;9.990;2023-02-28T10:59:39;1.40;99.90
7016;DHT22;3548;48.402;9.990;2023-02-28T11:02:34;1.50;99.80
7016;DHT22;3548;48.402;9.990;2023-02-28T11:05:00;1.50;99.90
7016;DHT22;3548;48.402;9.990;2023-02-28T11:07:26;1.60;99.90
7016;DHT22;3548;48.402;9.990;2023-02-28T11:09:57;1.70;99.60
7016;DHT22;3548;48.402;9.990;2023-02-28T11:12:31;1.70;99.10
7016;DHT22;3548;48.402;9.990;2023-02-28T11:15:25;1.40;99.70
7016;DHT22;3548;48.402;9.990;2023-02-28T11:20:28;1.60;99.60
7016;DHT22;3548;48.402;9.990;2023-02-28T11:22:57;1.30;99.90
7016;DHT22;3548;48.402;9.990;2023-02-28T11:25:28;1.30;99.70
7016;DHT22;3548;48.402;9.990;2023-02-28T11:28:00;1.10;99.90
7016;DHT22;3548;48.402;9.990;2023-02-28T11:30:39;1.20;99.90
7016;DHT22;3548;48.402;9.990;2023-02-28T11:33:37;1.30;99.90
7016;DHT22;3548;48.402;9.990;2023-02-28T11:36:13;1.20;99.90
7016;DHT22;3548;48.402;9.990;2023-02-28T11:38:39;1.00;99.90
7016;DHT22;3548;48.402;9.990;2023-02-28T11:44:16;0.90;99.90
7016;DHT22;3548;48.402;9.990;2023-02-28T11:47:09;1.00;99.90
7016;DHT22;3548;48.402;9.990;2023-02-28T11:50:10;1.10;99.90
7016;DHT22;3548;48.402;9.990;2023-02-28T11:52:56;1.20;99.90
7016;DHT22;3548;48.402;9.990;2023-02-28T11:55:42;1.10;99.90
7016;DHT22;3548;48.402;9.990;2023-02-28T12:01:22;1.20;99.90
7016;DHT22;3548;48.402;9.990;2023-02-28T12:06:47;1.50;99.90
7016;DHT22;3548;48.402;9.990;2023-02-28T12:09:30;1.90;99.90
7016;DHT22;3548;48.402;9.990;2023-02-28T12:15:00;2.30;99.20
7016;DHT22;3548;48.402;9.990;2023-02-28T12:29:30;2.70;97.10
7016;DHT22;3548;48.402;9.990;2023-02-28T12:32:13;2.60;97.90
7016;DHT22;3548;48.402;9.990;2023-02-28T12:34:48;2.80;97.70
7016;DHT22;3548;48.402;9.990;2023-02-28T12:37:24;2.90;97.30
7016;DHT22;3548;48.402;9.990;2023-02-28T12:39:59;3.00;96.90
7016;DHT22;3548;48.402;9.990;2023-02-28T12:42:36;3.00;97.20
7016;DHT22;3548;48.402;9.990;2023-02-28T12:45:05;3.00;96.80
7016;DHT22;3548;48.402;9.990;2023-02-28T12:47:34;2.70;97.10
7016;DHT22;3548;48.402;9.990;2023-02-28T12:50:06;2.70;97.30
7016;DHT22;3548;48.402;9.990;2023-02-28T13:04:08;3.20;96.50
7016;DHT22;3548;48.402;9.990;2023-02-28T13:06:59;3.10;96.20
7016;DHT22;3548;48.402;9.990;2023-02-28T13:09:31;3.20;96.80
7016;DHT22;3548;48.402;9.990;2023-02-28T13:11:57;3.30;96.90
7016;DHT22;3548;48.402;9.990;2023-02-28T13:17:10;3.70;95.70
7016;DHT22;3548;48.402;9.990;2023-02-28T13:19:59;3.60;95.80
7016;DHT22;3548;48.402;9.990;2023-02-28T13:22:45;3.20;96.40
7016;DHT22;3548;48.402;9.990;2023-02-28T13:25:49;3.20;96.60
7016;DHT22;3548;48.402;9.990;2023-02-28T13:31:20;3.40;97.10
7016;DHT22;3548;48.402;9.990;2023-02-28T13:39:45;3.40;96.60
7016;DHT22;3548;48.402;9.990;2023-02-28T13:41:49;3.60;96.10
7016;DHT22;3548;48.402;9.990;2023-02-28T13:44:21;3.70;96.00
7016;DHT22;3548;48.402;9.990;2023-02-28T13:49:25;3.50;96.40
7016;DHT22;3548;48.402;9.990;2023-02-28T13:55:14;3.40;95.70
7016;DHT22;3548;48.402;9.990;2023-02-28T14:06:23;3.20;96.40
7016;DHT22;3548;48.402;9.990;2023-02-28T14:11:36;3.40;96.30
7016;DHT22;3548;48.402;9.990;2023-02-28T14:14:03;3.10;96.10
7016;DHT22;3548;48.402;9.990;2023-02-28T14:16:42;3.20;96.60
7016;DHT22;3548;48.402;9.990;2023-02-28T14:19:13;3.30;96.30
7016;DHT22;3548;48.402;9.990;2023-02-28T14:22:15;3.40;96.00
7016;DHT22;3548;48.402;9.990;2023-02-28T14:25:18;3.40;96.10
7016;DHT22;3548;48.402;9.990;2023-02-28T14:37:05;3.20;95.90
7016;DHT22;3548;48.402;9.990;2023-02-28T14:39:33;3.30;96.40
7016;DHT22;3548;48.402;9.990;2023-02-28T14:41:59;3.40;96.20
7016;DHT22;3548;48.402;9.990;2023-02-28T14:44:30;3.50;96.10
7016;DHT22;3548;48.402;9.990;2023-02-28T14:47:00;3.60;95.50
7016;DHT22;3548;48.402;9.990;2023-02-28T14:49:35;3.60;95.40
7016;DHT22;3548;48.402;9.990;2023-02-28T14:52:24;3.50;95.40
7016;DHT22;3548;48.402;9.990;2023-02-28T14:54:56;3.40;95.50
7016;DHT22;3548;48.402;9.990;2023-02-28T15:02:43;3.40;95.40
7016;DHT22;3548;48.402;9.990;2023-02-28T15:07:47;3.20;95.40
7016;DHT22;3548;48.402;9.990;2023-02-28T15:10:21;3.30;95.90
7016;DHT22;3548;48.402;9.990;2023-02-28T15:12:55;3.30;95.80
7016;DHT22;3548;48.402;9.990;2023-02-28T15:15:23;3.40;95.50
7016;DHT22;3548;48.402;9.990;2023-02-28T15:17:54;3.50;95.60
7016;DHT22;3548;48.402;9.990;2023-02-28T15:20:21;3.50;95.80
7016;DHT22;3548;48.402;9.990;2023-02-28T15:22:50;3.50;95.60
7016;DHT22;3548;48.402;9.990;2023-02-28T15:25:19;3.50;95.70
7016;DHT22;3548;48.402;9.990;2023-02-28T15:27:49;3.50;95.80
7016;DHT22;3548;48.402;9.990;2023-02-28T15:30:21;3.40;95.40
7016;DHT22;3548;48.402;9.990;2023-02-28T15:35:37;3.30;95.70
7016;DHT22;3548;48.402;9.990;2023-02-28T15:38:22;3.30;95.70
7016;DHT22;3548;48.402;9.990;2023-02-28T15:40:56;3.20;95.80
7016;DHT22;3548;48.402;9.990;2023-02-28T15:43:30;3.20;95.80
7016;DHT22;3548;48.402;9.990;2023-02-28T15:46:02;3.20;96.00
7016;DHT22;3548;48.402;9.990;2023-02-28T15:48:36;3.30;95.70
7016;DHT22;3548;48.402;9.990;2023-02-28T15:51:14;3.30;95.50
7016;DHT22;3548;48.402;9.990;2023-02-28T15:53:48;3.20;95.40
7016;DHT22;3548;48.402;9.990;2023-02-28T15:56:27;3.30;95.70
7016;DHT22;3548;48.402;9.990;2023-02-28T15:58:55;3.30;95.80
7016;DHT22;3548;48.402;9.990;2023-02-28T16:01:27;3.30;96.20
7016;DHT22;3548;48.402;9.990;2023-02-28T16:03:56;3.30;96.00
7016;DHT22;3548;48.402;9.990;2023-02-28T16:06:25;3.30;95.60
7016;DHT22;3548;48.402;9.990;2023-02-28T16:08:51;3.20;95.90
7016;DHT22;3548;48.402;9.990;2023-02-28T16:11:19;3.20;96.10
7016;DHT22;3548;48.402;9.990;2023-02-28T16:13:45;3.20;96.10
7016;DHT22;3548;48.402;9.990;2023-02-28T16:16:19;3.10;96.30
7016;DHT22;3548;48.402;9.990;2023-02-28T16:18:45;3.10;96.50
7016;DHT22;3548;48.402;9.990;2023-02-28T16:21:11;3.10;96.40
7016;DHT22;3548;48.402;9.990;2023-02-28T16:23:37;3.00;96.60
7016;DHT22;3548;48.402;9.990;2023-02-28T16:26:04;3.00;96.70
7016;DHT22;3548;48.402;9.990;2023-02-28T16:28:35;3.00;96.70
7016;DHT22;3548;48.402;9.990;2023-02-28T16:31:02;3.00;96.70
7016;DHT22;3548;48.402;9.990;2023-02-28T16:33:30;2.90;96.80
7016;DHT22;3548;48.402;9.990;2023-02-28T16:35:55;2.80;96.70
7016;DHT22;3548;48.402;9.990;2023-02-28T16:38:21;2.80;97.00
7016;DHT22;3548;48.402;9.990;2023-02-28T16:40:49;2.80;97.20
7016;DHT22;3548;48.402;9.990;2023-02-28T16:43:18;2.80;97.00
7016;DHT22;3548;48.402;9.990;2023-02-28T16:45:45;2.70;97.10
7016;DHT22;3548;48.402;9.990;2023-02-28T16:48:15;2.70;97.30
7016;DHT22;3548;48.402;9.990;2023-02-28T16:50:42;2.70;97.30
7016;DHT22;3548;48.402;9.990;2023-02-28T16:53:09;2.70;97.40
7016;DHT22;3548;48.402;9.990;2023-02-28T16:55:35;2.60;97.60
7016;DHT22;3548;48.402;9.990;2023-02-28T16:58:02;2.60;97.60
7016;DHT22;3548;48.402;9.990;2023-02-28T17:00:30;2.50;97.70
7016;DHT22;3548;48.402;9.990;2023-02-28T17:02:56;2.50;97.70
7016;DHT22;3548;48.402;9.990;2023-02-28T17:05:22;2.50;97.80
7016;DHT22;3548;48.402;9.990;2023-02-28T17:07:48;2.40;97.80
7016;DHT22;3548;48.402;9.990;2023-02-28T17:10:20;2.40;98.00
7016;DHT22;3548;48.402;9.990;2023-02-28T17:12:46;2.40;98.10
7016;DHT22;3548;48.402;9.990;2023-02-28T17:15:13;2.30;98.20
7016;DHT22;3548;48.402;9.990;2023-02-28T17:17:40;2.30;98.60
7016;DHT22;3548;48.402;9.990;2023-02-28T17:20:06;2.20;98.40
7016;DHT22;3548;48.402;9.990;2023-02-28T17:22:32;2.20;98.50
7016;DHT22;3548;48.402;9.990;2023-02-28T17:24:58;2.20;98.60
7016;DHT22;3548;48.402;9.990;2023-02-28T17:27:25;2.10;98.70
7016;DHT22;3548;48.402;9.990;2023-02-28T17:29:51;2.10;98.80
7016;DHT22;3548;48.402;9.990;2023-02-28T17:32:16;2.10;98.90
7016;DHT22;3548;48.402;9.990;2023-02-28T17:34:42;2.10;99.20
7016;DHT22;3548;48.402;9.990;2023-02-28T17:37:09;2.10;99.20
7016;DHT22;3548;48.402;9.990;2023-02-28T17:39:34;2.00;99.10
7016;DHT22;3548;48.402;9.990;2023-02-28T17:42:00;2.00;99.10
7016;DHT22;3548;48.402;9.990;2023-02-28T17:44:26;2.00;99.20
7016;DHT22;3548;48.402;9.990;2023-02-28T17:46:53;2.00;99.50
7016;DHT22;3548;48.402;9.990;2023-02-28T17:49:20;1.90;99.50
7016;DHT22;3548;48.402;9.990;2023-02-28T17:51:47;1.90;99.60
7016;DHT22;3548;48.402;9.990;2023-02-28T17:54:13;1.90;99.70
7016;DHT22;3548;48.402;9.990;2023-02-28T17:56:40;1.90;99.70
7016;DHT22;3548;48.402;9.990;2023-02-28T17:59:06;1.80;99.70
7016;DHT22;3548;48.402;9.990;2023-02-28T18:01:33;1.90;99.80
7016;DHT22;3548;48.402;9.990;2023-02-28T18:03:59;1.90;99.80
7016;DHT22;3548;48.402;9.990;2023-02-28T18:06:28;1.80;99.80
7016;DHT22;3548;48.402;9.990;2023-02-28T18:08:56;1.80;99.90
7016;DHT22;3548;48.402;9.990;2023-02-28T18:11:23;1.80;99.90
7016;DHT22;3548;48.402;9.990;2023-02-28T18:13:51;1.80;99.80
7016;DHT22;3548;48.402;9.990;2023-02-28T18:16:18;1.80;99.90
7016;DHT22;3548;48.402;9.990;2023-02-28T18:18:44;1.80;99.80
7016;DHT22;3548;48.402;9.990;2023-02-28T18:21:12;1.80;99.90
7016;DHT22;3548;48.402;9.990;2023-02-28T18:23:37;1.80;99.90
7016;DHT22;3548;48.402;9.990;2023-02-28T18:26:09;1.80;99.90
7016;DHT22;3548;48.402;9.990;2023-02-28T18:28:35;1.80;99.90
7016;DHT22;3548;48.402;9.990;2023-02-28T18:31:06;1.80;99.90
7016;DHT22;3548;48.402;9.990;2023-02-28T18:33:31;1.80;99.90
7016;DHT22;3548;48.402;9.990;2023-02-28T18:35:57;1.80;99.90
7016;DHT22;3548;48.402;9.990;2023-02-28T18:38:22;1.70;99.90
7016;DHT22;3548;48.402;9.990;2023-02-28T18:40:56;1.70;99.90
7016;DHT22;3548;48.402;9.990;2023-02-28T18:43:24;1.70;99.90
7016;DHT22;3548;48.402;9.990;2023-02-28T18:45:49;1.70;99.90